Time;durP1;ratioP1;P1;durP2;ratioP2;P2;SDS_P1;SDS_P2;PMS_P1;PMS_P2;Temp;Humidity;BMP_temperature;BMP_pressure;BME280_temperature;BME280_humidity;BME280_pressure;Samples;Min_cycle;Max_cycle;Signal;HPM_P1;HPM_P2
2021/12/05 00:21:44;;;;;;;11.05;5.55;;;4.20;99.90;;;;;;5083421;28;20474;-84
2021/12/05 00:24:15;;;;;;;13.73;5.72;;;4.30;99.90;;;;;;5098493;28;20121;-85
2021/12/05 00:26:51;;;;;;;10.00;5.22;;;4.20;99.90;;;;;;5106769;28;20039;-85
2021/12/05 00:29:33;;;;;;;9.40;4.30;;;4.20;99.90;;;;;;5105400;28;20045;-84
2021/12/05 00:32:08;;;;;;;7.78;4.28;;;4.30;99.90;;;;;;5109510;28;20031;-85
2021/12/05 00:34:56;;;;;;;9.07;5.25;;;4.30;99.90;;;;;;5123848;28;20035;-84
2021/12/05 00:48:31;;;;;;;7.67;4.50;;;4.20;99.90;;;;;;5123047;28;20458;-84
2021/12/05 01:03:33;;;;;;;12.20;5.05;;;4.10;99.90;;;;;;5127212;27;20045;-83
2021/12/05 01:12:01;;;;;;;9.57;3.88;;;4.20;99.90;;;;;;5112409;27;20039;-83
2021/12/05 01:14:53;;;;;;;6.97;3.60;;;4.10;99.90;;;;;;5114341;27;20043;-83
2021/12/05 01:17:25;;;;;;;7.53;3.47;;;4.20;99.90;;;;;;5109264;27;20619;-84
2021/12/05 01:19:53;;;;;;;5.95;3.15;;;4.10;99.90;;;;;;5126505;27;20047;-84
2021/12/05 01:22:20;;;;;;;6.80;3.38;;;4.10;99.90;;;;;;5108903;27;20378;-84
2021/12/05 01:27:19;;;;;;;5.97;2.95;;;4.10;99.90;;;;;;5126094;27;20797;-84
2021/12/05 01:29:55;;;;;;;5.75;3.10;;;4.10;99.90;;;;;;5126387;27;20047;-84
2021/12/05 01:35:25;;;;;;;6.18;3.70;;;4.10;99.90;;;;;;5125995;27;20400;-84
2021/12/05 01:43:34;;;;;;;7.70;3.17;;;4.10;99.90;;;;;;5126861;27;21381;-84
2021/12/05 01:51:42;;;;;;;5.10;3.58;;;4.00;99.90;;;;;;5112027;27;20505;-83
2021/12/05 01:56:52;;;;;;;4.15;2.50;;;4.00;99.90;;;;;;5125322;27;20068;-84
2021/12/05 01:59:43;;;;;;;3.67;2.33;;;4.00;99.90;;;;;;5126410;27;20047;-83
2021/12/05 02:38:02;;;;;;;6.25;3.40;;;3.90;99.90;;;;;;5124588;27;20061;-84
2021/12/05 02:40:31;;;;;;;8.20;4.10;;;3.90;99.90;;;;;;5124044;27;20122;-84
2021/12/05 02:45:29;;;;;;;5.30;3.45;;;3.90;99.90;;;;;;5125206;27;20043;-84
2021/12/05 02:47:55;;;;;;;9.65;4.07;;;4.00;99.90;;;;;;5125248;27;20034;-83
2021/12/05 02:50:27;;;;;;;6.75;3.85;;;4.00;99.90;;;;;;5125789;27;20118;-84
2021/12/05 02:52:58;;;;;;;6.45;3.42;;;4.00;99.90;;;;;;5107282;27;20519;-84
2021/12/05 02:55:48;;;;;;;6.68;3.40;;;4.00;99.90;;;;;;5108555;27;20130;-83
2021/12/05 03:01:22;;;;;;;7.00;3.80;;;4.00;99.90;;;;;;5123077;27;20047;-84
2021/12/05 03:03:52;;;;;;;6.60;3.67;;;4.00;99.90;;;;;;5107857;27;20062;-83
2021/12/05 03:06:24;;;;;;;7.40;3.90;;;4.00;99.90;;;;;;5089566;27;20269;-84
2021/12/05 03:09:06;;;;;;;8.95;3.83;;;3.90;99.90;;;;;;5124721;27;20051;-83
2021/12/05 03:11:32;;;;;;;7.88;3.90;;;4.00;99.90;;;;;;5107590;27;20046;-83
2021/12/05 03:13:58;;;;;;;7.45;3.55;;;4.00;99.90;;;;;;5123954;27;20050;-84
2021/12/05 03:16:26;;;;;;;7.07;3.45;;;4.00;99.90;;;;;;5106699;27;20172;-83
2021/12/05 03:18:52;;;;;;;8.88;4.28;;;3.90;99.90;;;;;;5124249;27;20153;-84
2021/12/05 03:21:18;;;;;;;8.18;3.97;;;4.00;99.90;;;;;;5107022;27;20218;-84
2021/12/05 03:23:46;;;;;;;7.55;4.07;;;4.00;99.90;;;;;;5122351;27;20150;-84
2021/12/05 03:26:15;;;;;;;8.88;4.68;;;4.00;99.90;;;;;;5123612;27;20046;-84
2021/12/05 03:28:42;;;;;;;7.60;4.25;;;4.00;99.90;;;;;;5125039;27;20489;-83
2021/12/05 03:31:08;;;;;;;;;;;4.00;99.90;;;;;;5109028;27;20371;-83
2021/12/05 03:33:35;;;;;;;9.15;4.40;;;4.00;99.90;;;;;;5106491;27;19930;-84
2021/12/05 03:36:02;;;;;;;8.20;4.10;;;4.00;99.90;;;;;;5125109;27;20042;-84
2021/12/05 03:38:28;;;;;;;8.70;4.30;;;4.00;99.90;;;;;;5106820;27;20439;-83
2021/12/05 03:40:54;;;;;;;10.15;4.50;;;4.00;99.90;;;;;;5081131;27;20125;-84
2021/12/05 03:43:21;;;;;;;8.50;4.53;;;3.90;99.90;;;;;;5107000;27;20126;-84
2021/12/05 03:45:52;;;;;;;7.43;4.00;;;4.00;99.90;;;;;;5107018;27;20092;-83
2021/12/05 03:48:21;;;;;;;5.80;3.40;;;4.00;99.90;;;;;;5124626;27;20144;-84
2021/12/05 03:50:48;;;;;;;6.30;3.58;;;4.00;99.90;;;;;;5107511;27;20499;-83
2021/12/05 03:53:14;;;;;;;;;;;3.90;99.90;;;;;;5125307;27;20042;-83
2021/12/05 03:55:43;;;;;;;7.25;4.05;;;3.90;99.90;;;;;;5124267;27;20002;-83
2021/12/05 03:58:09;;;;;;;7.57;4.65;;;3.90;99.90;;;;;;5106798;28;20492;-83
2021/12/05 04:00:39;;;;;;;7.38;4.07;;;3.90;99.90;;;;;;5122943;28;20410;-83
2021/12/05 04:03:08;;;;;;;9.65;4.63;;;3.90;99.90;;;;;;5124164;28;20043;-83
2021/12/05 04:05:34;;;;;;;12.60;5.60;;;3.90;99.90;;;;;;5122928;28;20083;-83
2021/12/05 04:08:02;;;;;;;10.20;5.80;;;3.90;99.90;;;;;;5123218;28;20469;-83
2021/12/05 04:10:31;;;;;;;15.40;5.57;;;3.80;99.90;;;;;;5123507;28;20046;-83
2021/12/05 04:12:57;;;;;;;13.88;5.95;;;3.80;99.90;;;;;;5088581;28;20046;-83
2021/12/05 04:15:24;;;;;;;10.77;5.03;;;3.80;99.90;;;;;;5106867;28;20039;-83
2021/12/05 04:17:49;;;;;;;;;;;3.80;99.90;;;;;;5124123;28;20436;-83
2021/12/05 04:20:17;;;;;;;10.43;5.18;;;3.80;99.90;;;;;;5123765;27;19922;-83
2021/12/05 04:22:43;;;;;;;10.63;5.10;;;3.70;99.90;;;;;;5122748;28;20103;-83
2021/12/05 04:25:11;;;;;;;10.95;5.60;;;3.70;99.90;;;;;;5091632;27;20038;-83
2021/12/05 04:27:38;;;;;;;9.48;5.80;;;3.70;99.90;;;;;;5126456;27;20137;-83
2021/12/05 04:30:06;;;;;;;13.10;6.05;;;3.70;99.90;;;;;;5126917;27;20385;-82
2021/12/05 04:32:32;;;;;;;11.07;6.50;;;3.60;99.90;;;;;;5126655;27;20104;-83
2021/12/05 04:34:58;;;;;;;10.32;5.50;;;3.70;99.90;;;;;;5086280;27;20055;-82
2021/12/05 04:37:24;;;;;;;10.02;5.60;;;3.60;99.90;;;;;;5109392;27;20043;-82
2021/12/05 04:39:51;;;;;;;13.57;6.60;;;3.50;99.90;;;;;;5111155;27;20982;-82
2021/12/05 04:42:17;;;;;;;11.20;5.57;;;3.40;99.90;;;;;;5110789;27;20041;-83
2021/12/05 04:44:43;;;;;;;6.47;4.28;;;3.50;99.90;;;;;;5126899;27;20035;-83
2021/12/05 04:47:10;;;;;;;6.78;4.00;;;3.50;99.90;;;;;;5093122;27;20042;-83
2021/12/05 04:49:39;;;;;;;7.47;3.80;;;3.40;99.90;;;;;;5110155;27;20054;-83
2021/12/05 04:52:05;;;;;;;9.65;4.70;;;3.40;99.90;;;;;;5110004;27;20039;-82
2021/12/05 04:54:32;;;;;;;8.20;4.32;;;3.40;99.90;;;;;;5128609;27;20880;-83
2021/12/05 04:56:58;;;;;;;5.88;3.78;;;3.40;99.90;;;;;;5126906;27;20043;-83
2021/12/05 04:59:26;;;;;;;12.10;5.00;;;3.50;99.90;;;;;;5126783;27;20043;-83
2021/12/05 05:01:54;;;;;;;12.35;5.18;;;3.50;99.90;;;;;;5109002;27;20502;-83
2021/12/05 05:04:29;;;;;;;11.02;5.97;;;3.50;99.90;;;;;;5127121;27;20115;-83
2021/12/05 05:07:05;;;;;;;11.85;6.53;;;3.60;99.90;;;;;;5095049;27;20539;-83
2021/12/05 05:09:32;;;;;;;12.75;6.65;;;3.60;99.90;;;;;;5126301;27;20108;-82
2021/12/05 05:11:57;;;;;;;15.52;7.15;;;3.50;99.90;;;;;;5110036;27;20039;-83
2021/12/05 05:14:23;;;;;;;14.88;7.28;;;3.60;99.90;;;;;;5127146;27;20046;-83
2021/12/05 05:16:53;;;;;;;17.55;7.03;;;3.60;99.90;;;;;;5092997;27;20129;-82
2021/12/05 05:19:25;;;;;;;13.00;6.60;;;3.60;99.90;;;;;;5108551;27;20047;-82
2021/12/05 05:24:54;;;;;;;11.32;6.45;;;3.60;99.90;;;;;;5110152;27;20047;-82
2021/12/05 05:44:14;;;;;;;17.70;7.78;;;3.60;99.90;;;;;;5092050;27;20348;-82
2021/12/05 05:46:11;;;;;;;14.27;7.03;;;3.60;99.90;;;;;;5128543;27;20042;-82
2021/12/05 05:48:50;;;;;;;11.52;6.28;;;3.60;99.90;;;;;;5125062;27;20062;-80
2021/12/05 05:51:17;;;;;;;16.95;7.72;;;3.60;99.90;;;;;;5109436;27;20091;-80
2021/12/05 05:53:47;;;;;;;15.32;6.78;;;3.60;99.90;;;;;;5108109;27;20038;-80
2021/12/05 05:56:18;;;;;;;13.98;6.63;;;3.60;99.90;;;;;;5122127;27;20035;-80
2021/12/05 05:58:56;;;;;;;17.80;6.45;;;3.60;99.90;;;;;;5108181;27;20461;-81
2021/12/05 06:04:05;;;;;;;13.60;6.20;;;3.60;99.90;;;;;;5126221;27;20062;-81
2021/12/05 06:06:32;;;;;;;11.93;6.05;;;3.60;99.90;;;;;;5125818;27;20129;-81
2021/12/05 06:09:00;;;;;;;15.23;6.03;;;3.50;99.90;;;;;;5107871;27;20039;-81
2021/12/05 06:11:26;;;;;;;17.67;6.80;;;3.50;99.90;;;;;;5099721;27;20400;-81
2021/12/05 06:13:52;;;;;;;14.50;6.38;;;3.50;99.90;;;;;;5126143;27;20047;-81
2021/12/05 06:16:19;;;;;;;11.90;5.80;;;3.50;99.90;;;;;;5108466;27;20055;-81
2021/12/05 06:18:46;;;;;;;15.40;5.95;;;3.50;99.90;;;;;;5109018;27;20035;-81
2021/12/05 06:21:13;;;;;;;16.20;6.25;;;3.50;99.90;;;;;;5107953;27;20490;-81
2021/12/05 06:23:39;;;;;;;14.63;6.68;;;3.50;99.90;;;;;;5125585;27;20053;-81
2021/12/05 06:26:09;;;;;;;11.70;5.65;;;3.50;99.90;;;;;;5125214;27;20501;-81
2021/12/05 06:28:44;;;;;;;15.70;6.60;;;3.40;99.90;;;;;;5108750;27;20035;-81
2021/12/05 06:40:19;;;;;;;9.70;5.32;;;3.40;99.90;;;;;;5059757;27;20048;-79
2021/12/05 06:48:05;;;;;;;13.73;4.82;;;3.30;99.90;;;;;;5113174;27;20164;-82
2021/12/05 06:50:31;;;;;;;13.80;5.63;;;3.30;99.90;;;;;;5083779;27;20183;-80
2021/12/05 06:52:57;;;;;;;11.13;5.30;;;3.20;99.90;;;;;;5125382;27;20448;-80
2021/12/05 06:55:22;;;;;;;12.13;5.55;;;3.20;99.90;;;;;;5128735;27;20055;-80
2021/12/05 06:57:48;;;;;;;13.52;5.50;;;3.20;99.90;;;;;;5091505;27;20071;-79
2021/12/05 07:00:20;;;;;;;17.55;6.10;;;3.20;99.90;;;;;;5108254;27;20043;-79
2021/12/05 07:02:46;;;;;;;11.57;4.57;;;3.20;99.90;;;;;;5126317;27;20031;-78
2021/12/05 07:07:56;;;;;;;14.52;4.70;;;3.20;99.90;;;;;;5126915;27;20495;-79
2021/12/05 07:10:22;;;;;;;10.00;4.25;;;3.20;99.90;;;;;;5092914;27;20035;-79
2021/12/05 07:26:08;;;;;;;11.43;4.85;;;3.20;99.90;;;;;;5125550;27;20084;-79
2021/12/05 07:42:23;;;;;;;10.13;4.78;;;3.20;99.90;;;;;;5123542;27;20420;-80
2021/12/05 07:44:53;;;;;;;13.07;4.70;;;3.20;99.90;;;;;;5122344;27;20035;-80
2021/12/05 07:47:22;;;;;;;17.20;5.45;;;3.20;99.90;;;;;;5089243;27;20422;-80
2021/12/05 07:49:48;;;;;;;14.27;6.13;;;3.30;99.90;;;;;;5124215;27;20050;-80
2021/12/05 07:52:19;;;;;;;15.02;5.68;;;3.20;99.90;;;;;;5105374;27;20130;-80
2021/12/05 07:54:50;;;;;;;14.40;5.60;;;3.30;99.90;;;;;;5106991;28;20059;-88
2021/12/05 07:57:21;;;;;;;10.15;5.10;;;3.30;99.90;;;;;;5126263;27;20050;-82
2021/12/05 08:16:17;;;;;;;12.55;6.15;;;3.40;99.90;;;;;;5125084;28;20065;-79
2021/12/05 08:18:43;;;;;;;13.93;5.70;;;3.40;99.90;;;;;;5106373;28;20139;-79
2021/12/05 08:21:10;;;;;;;14.63;6.53;;;3.40;99.90;;;;;;5123634;28;20122;-77
2021/12/05 08:23:36;;;;;;;11.15;5.18;;;3.40;99.90;;;;;;5107968;28;20027;-79
2021/12/05 08:28:55;;;;;;;11.48;4.70;;;3.50;99.90;;;;;;5126251;28;20047;-79
2021/12/05 09:38:50;;;;;;;8.45;5.57;;;4.10;99.90;;;;;;5086245;27;20051;-84
2021/12/05 10:13:58;;;;;;;9.98;5.13;;;4.00;99.90;;;;;;5127287;27;20065;-84
2021/12/05 10:19:47;;;;;;;13.95;7.88;;;4.00;99.90;;;;;;5124762;27;20382;-84
2021/12/05 10:38:34;;;;;;;11.98;7.50;;;4.10;99.90;;;;;;5119595;27;20047;-81
2021/12/05 10:41:21;;;;;;;10.02;6.57;;;4.10;99.90;;;;;;5106944;27;20144;-81
2021/12/05 10:43:52;;;;;;;8.65;5.10;;;4.10;99.90;;;;;;5122973;27;20051;-81
2021/12/05 10:46:20;;;;;;;7.65;4.75;;;4.10;99.90;;;;;;5098876;27;20054;-81
2021/12/05 10:48:49;;;;;;;7.40;4.22;;;4.20;99.90;;;;;;5101830;27;20041;-82
2021/12/05 10:51:27;;;;;;;9.32;6.28;;;4.20;99.90;;;;;;5124476;27;20114;-82
2021/12/05 10:53:53;;;;;;;9.10;5.40;;;4.20;99.90;;;;;;5124007;27;20554;-82
2021/12/05 10:56:33;;;;;;;9.13;5.80;;;4.20;99.90;;;;;;5123643;27;20051;-82
2021/12/05 10:59:01;;;;;;;7.53;5.03;;;4.20;99.90;;;;;;5122685;27;20137;-82
2021/12/05 11:01:35;;;;;;;12.05;6.63;;;4.20;99.90;;;;;;5123925;27;20043;-82
2021/12/05 11:04:09;;;;;;;10.85;6.10;;;4.20;99.90;;;;;;5110918;27;20106;-82
2021/12/05 11:06:50;;;;;;;7.88;5.40;;;4.20;99.90;;;;;;5110861;27;20035;-83
2021/12/05 11:09:17;;;;;;;11.02;5.65;;;4.20;99.90;;;;;;5128052;27;20130;-83
2021/12/05 11:11:47;;;;;;;12.45;7.15;;;4.20;99.90;;;;;;5107939;27;20038;-84
2021/12/05 11:14:19;;;;;;;14.07;6.80;;;4.30;99.90;;;;;;5125665;27;20503;-83
2021/12/05 11:16:51;;;;;;;13.90;7.32;;;4.20;99.90;;;;;;5123928;27;20082;-83
2021/12/05 11:19:25;;;;;;;9.05;5.35;;;4.30;99.90;;;;;;5104949;27;20064;-83
2021/12/05 11:22:16;;;;;;;11.75;6.57;;;4.30;99.90;;;;;;5124114;27;20127;-83
2021/12/05 11:24:47;;;;;;;7.15;5.38;;;4.30;99.90;;;;;;5106761;27;20043;-83
2021/12/05 11:27:32;;;;;;;13.40;7.68;;;4.40;99.90;;;;;;5107520;27;20134;-83
2021/12/05 11:30:04;;;;;;;10.25;6.93;;;4.40;99.90;;;;;;5107083;27;20039;-83
2021/12/05 11:32:48;;;;;;;12.98;7.88;;;4.40;99.90;;;;;;5125050;27;20053;-83
2021/12/05 11:35:32;;;;;;;10.50;7.40;;;4.50;99.90;;;;;;5141311;27;20054;-83
2021/12/05 11:38:13;;;;;;;12.02;7.78;;;4.50;99.90;;;;;;5107876;27;20082;-83
2021/12/05 11:40:51;;;;;;;14.63;7.50;;;4.50;99.90;;;;;;5124144;27;20121;-83
2021/12/05 11:43:28;;;;;;;11.82;6.50;;;4.60;99.90;;;;;;5124622;27;20046;-83
2021/12/05 11:46:11;;;;;;;11.95;7.55;;;4.60;99.90;;;;;;5124556;27;20174;-83
2021/12/05 11:48:44;;;;;;;10.27;5.60;;;4.60;99.90;;;;;;5107432;27;20571;-83
2021/12/05 11:51:18;;;;;;;10.18;6.22;;;4.60;99.90;;;;;;5107116;27;20477;-83
2021/12/05 11:54:08;;;;;;;12.05;6.82;;;4.70;99.90;;;;;;5106583;28;20035;-83
2021/12/05 11:56:36;;;;;;;16.33;7.22;;;4.70;99.90;;;;;;5106642;27;20042;-83
2021/12/05 11:59:10;;;;;;;13.15;6.93;;;4.70;99.90;;;;;;5106257;28;20050;-84
2021/12/05 12:01:36;;;;;;;14.20;7.75;;;4.70;99.90;;;;;;5107826;28;20242;-84
2021/12/05 12:04:03;;;;;;;12.68;7.05;;;4.80;99.90;;;;;;5124428;28;20133;-84
2021/12/05 12:06:29;;;;;;;9.38;6.15;;;4.80;99.90;;;;;;5108203;28;20034;-84
2021/12/05 12:08:55;;;;;;;12.38;7.55;;;4.90;99.90;;;;;;5073944;28;20390;-84
2021/12/05 12:11:23;;;;;;;11.02;6.50;;;4.90;99.90;;;;;;5107910;28;20115;-84
2021/12/05 12:13:50;;;;;;;11.68;6.70;;;5.00;99.90;;;;;;5107352;28;20090;-84
2021/12/05 12:16:16;;;;;;;8.60;5.63;;;4.90;99.90;;;;;;5123986;28;20062;-85
2021/12/05 12:18:47;;;;;;;11.55;6.35;;;5.00;99.90;;;;;;5124109;27;20043;-84
2021/12/05 12:21:19;;;;;;;10.38;6.25;;;5.00;99.90;;;;;;5123481;28;20043;-84
2021/12/05 12:23:48;;;;;;;10.50;6.93;;;5.00;99.90;;;;;;5107069;28;20148;-84
2021/12/05 12:26:14;;;;;;;16.65;8.70;;;5.00;99.90;;;;;;5107863;28;21229;-84
2021/12/05 12:28:40;;;;;;;12.80;7.80;;;5.00;99.90;;;;;;5090428;28;20043;-84
2021/12/05 12:31:12;;;;;;;13.20;7.82;;;5.00;99.90;;;;;;5090329;27;20375;-84
2021/12/05 12:33:53;;;;;;;13.27;7.40;;;5.00;99.90;;;;;;5106792;28;20184;-84
2021/12/05 12:36:40;;;;;;;14.55;6.72;;;5.10;99.90;;;;;;5092203;28;20457;-84
2021/12/05 12:39:26;;;;;;;10.90;7.20;;;5.10;99.90;;;;;;5105732;28;20430;-84
2021/12/05 12:42:10;;;;;;;11.68;6.80;;;5.10;99.90;;;;;;5106672;28;20099;-84
2021/12/05 12:44:36;;;;;;;13.55;7.18;;;5.20;99.90;;;;;;5124181;28;20035;-83
2021/12/05 12:47:06;;;;;;;9.55;6.60;;;5.20;99.90;;;;;;5129728;27;20035;-85
2021/12/05 12:49:39;;;;;;;12.63;7.80;;;5.30;99.90;;;;;;5114781;27;20104;-84
2021/12/05 12:52:11;;;;;;;11.65;6.97;;;5.30;99.90;;;;;;5113543;27;20060;-85
2021/12/05 12:54:51;;;;;;;15.77;8.52;;;5.40;99.90;;;;;;5114243;27;20031;-84
2021/12/05 12:57:28;;;;;;;11.98;7.07;;;5.30;99.90;;;;;;5129282;27;20090;-84
2021/12/05 12:59:56;;;;;;;8.30;5.60;;;5.40;99.90;;;;;;5128035;27;20031;-83
2021/12/05 13:02:36;;;;;;;11.20;6.63;;;5.40;99.90;;;;;;5111118;27;20066;-83
2021/12/05 13:05:39;;;;;;;11.75;7.50;;;5.40;99.90;;;;;;5127569;27;20050;-83
2021/12/05 13:11:09;;;;;;;12.55;6.80;;;5.30;99.90;;;;;;5126281;27;20145;-84
2021/12/05 13:13:38;;;;;;;11.98;7.22;;;5.30;99.90;;;;;;5110605;27;20031;-84
2021/12/05 13:16:26;;;;;;;9.27;5.72;;;5.30;99.90;;;;;;5111168;27;20035;-83
2021/12/05 13:19:22;;;;;;;10.13;5.90;;;5.30;99.90;;;;;;5127724;27;20039;-84
2021/12/05 13:21:52;;;;;;;8.73;5.30;;;5.30;99.90;;;;;;5131142;27;20508;-84
2021/12/05 13:24:29;;;;;;;9.85;6.88;;;5.30;99.90;;;;;;5130050;27;20065;-84
2021/12/05 13:27:03;;;;;;;11.25;6.68;;;5.30;99.90;;;;;;5112464;27;20035;-84
2021/12/05 13:29:32;;;;;;;8.43;5.43;;;5.30;99.90;;;;;;5112894;27;20043;-84
2021/12/05 13:32:13;;;;;;;8.55;5.50;;;5.40;99.90;;;;;;5129548;27;20039;-85
2021/12/05 13:34:43;;;;;;;10.52;5.50;;;5.50;99.90;;;;;;5112310;27;20058;-85
2021/12/05 13:37:09;;;;;;;14.13;7.03;;;5.60;99.90;;;;;;5098966;27;20046;-83
2021/12/05 13:39:47;;;;;;;9.30;6.10;;;5.60;99.90;;;;;;5111767;27;20084;-84
2021/12/05 13:42:42;;;;;;;12.63;6.78;;;5.60;99.90;;;;;;5129065;27;20088;-84
2021/12/05 13:45:15;;;;;;;13.25;6.93;;;5.60;99.90;;;;;;5121547;27;20055;-84
2021/12/05 13:47:58;;;;;;;11.50;6.90;;;5.50;99.90;;;;;;5112968;27;20035;-84
2021/12/05 13:50:38;;;;;;;10.30;5.47;;;5.50;99.90;;;;;;5129183;27;20400;-86
2021/12/05 13:53:03;;;;;;;8.38;5.50;;;5.50;99.90;;;;;;5130429;27;20081;-84
2021/12/05 13:55:49;;;;;;;10.40;6.20;;;5.50;99.90;;;;;;5112659;27;20035;-86
2021/12/05 13:58:18;;;;;;;8.88;5.30;;;5.50;99.90;;;;;;5110447;27;20293;-84
2021/12/05 14:00:55;;;;;;;8.57;5.10;;;5.50;99.90;;;;;;5129383;27;20067;-85
2021/12/05 14:03:54;;;;;;;5.35;3.95;;;5.50;99.90;;;;;;5129898;27;20054;-86
2021/12/05 14:06:32;;;;;;;7.47;5.32;;;5.40;99.90;;;;;;5120853;27;20504;-85
2021/12/05 14:09:04;;;;;;;8.60;5.55;;;5.30;99.90;;;;;;5110020;27;20470;-85
2021/12/05 14:11:31;;;;;;;8.07;4.30;;;5.30;99.90;;;;;;5110398;27;20039;-84
2021/12/05 14:13:57;;;;;;;5.35;4.10;;;5.30;99.90;;;;;;5127320;27;20039;-85
2021/12/05 14:16:32;;;;;;;6.68;4.15;;;5.30;99.90;;;;;;5110090;27;20432;-83
2021/12/05 14:18:58;;;;;;;5.82;3.88;;;5.20;99.90;;;;;;5126776;27;20599;-83
2021/12/05 14:21:26;;;;;;;4.63;2.97;;;5.20;99.90;;;;;;5101638;27;20046;-83
2021/12/05 14:24:01;;;;;;;4.47;2.90;;;5.20;99.90;;;;;;5084573;27;20039;-83
2021/12/05 14:26:29;;;;;;;5.55;3.70;;;5.20;99.90;;;;;;5127269;27;20097;-83
2021/12/05 14:29:01;;;;;;;7.07;4.22;;;5.20;99.90;;;;;;5127142;27;20093;-83
2021/12/05 14:31:40;;;;;;;5.10;3.33;;;5.20;99.90;;;;;;5144441;27;20461;-83
2021/12/05 14:34:11;;;;;;;7.32;4.25;;;5.20;99.90;;;;;;5110219;27;20034;-84
2021/12/05 14:36:41;;;;;;;6.28;4.45;;;5.10;99.90;;;;;;5109025;27;20072;-84
2021/12/05 14:39:17;;;;;;;5.68;3.90;;;5.10;99.90;;;;;;5126294;27;20055;-84
2021/12/05 14:41:46;;;;;;;12.48;7.57;;;5.10;99.90;;;;;;5144010;27;20470;-84
2021/12/05 14:44:13;;;;;;;13.68;7.40;;;5.20;99.90;;;;;;5127217;27;20023;-84
2021/12/05 14:46:52;;;;;;;11.38;6.85;;;5.20;99.90;;;;;;5111246;27;20613;-83
2021/12/05 14:49:20;;;;;;;12.57;6.60;;;5.20;99.90;;;;;;5123401;27;20043;-84
2021/12/05 14:51:46;;;;;;;11.55;7.18;;;5.20;99.90;;;;;;5109227;27;20032;-84
2021/12/05 14:54:23;;;;;;;14.00;7.75;;;5.10;99.90;;;;;;5126402;27;20511;-84
2021/12/05 14:56:49;;;;;;;16.33;8.88;;;5.10;99.90;;;;;;5126032;27;20057;-84
2021/12/05 14:59:16;;;;;;;14.15;9.23;;;5.10;99.90;;;;;;5105145;27;20125;-87
2021/12/05 15:01:46;;;;;;;;;;;5.10;99.90;;;;;;5111583;27;20394;-87
2021/12/05 15:04:12;;;;;;;16.95;8.40;;;5.10;99.90;;;;;;5111382;27;20242;-80
2021/12/05 15:06:42;;;;;;;11.90;7.95;;;5.10;99.90;;;;;;5092741;27;20027;-84
2021/12/05 15:09:27;;;;;;;12.77;7.30;;;5.10;99.90;;;;;;5107404;27;20035;-85
2021/12/05 15:12:07;;;;;;;14.25;8.43;;;4.90;99.90;;;;;;5123270;27;20092;-86
2021/12/05 15:14:34;;;;;;;12.27;7.30;;;5.00;99.90;;;;;;5123960;27;20485;-85
2021/12/05 15:17:09;;;;;;;15.10;8.88;;;4.90;99.90;;;;;;5124836;27;20043;-85
2021/12/05 15:19:40;;;;;;;17.30;10.05;;;4.90;99.90;;;;;;5124371;27;20031;-85
2021/12/05 15:22:07;;;;;;;15.48;9.45;;;4.90;99.90;;;;;;5108284;27;20126;-85
2021/12/05 15:24:34;;;;;;;14.18;9.18;;;4.90;99.90;;;;;;5108611;27;20035;-84
2021/12/05 15:27:01;;;;;;;14.40;8.60;;;4.80;99.90;;;;;;5124999;27;20465;-85
2021/12/05 15:29:28;;;;;;;17.88;10.18;;;4.90;99.90;;;;;;5106338;27;20406;-82
2021/12/05 15:31:55;;;;;;;17.40;10.45;;;4.80;99.90;;;;;;5125935;27;20050;-85
2021/12/05 15:34:25;;;;;;;;;;;4.90;99.90;;;;;;5108757;27;20039;-85
2021/12/05 15:36:53;;;;;;;16.30;9.95;;;4.90;99.90;;;;;;5125730;27;19923;-81
2021/12/05 15:39:24;;;;;;;12.32;7.78;;;4.90;99.90;;;;;;5125998;27;20059;-84
2021/12/05 15:41:53;;;;;;;13.98;8.20;;;4.80;99.90;;;;;;5125190;27;20594;-83
2021/12/05 15:44:24;;;;;;;16.80;9.63;;;4.80;99.90;;;;;;5125943;27;20379;-86
2021/12/05 15:46:58;;;;;;;15.95;10.13;;;4.90;99.90;;;;;;5081114;27;20113;-85
2021/12/05 15:49:25;;;;;;;15.45;9.23;;;4.80;99.90;;;;;;5125181;27;20487;-88
2021/12/05 15:51:59;;;;;;;18.00;10.20;;;4.70;99.90;;;;;;5075241;27;20043;-78
2021/12/05 15:54:25;;;;;;;14.35;9.65;;;4.70;99.90;;;;;;5107126;28;20049;-82
2021/12/05 15:57:06;;;;;;;16.25;8.75;;;4.80;99.90;;;;;;5074715;28;20035;-82
2021/12/05 15:59:38;;;;;;;16.10;9.38;;;4.70;99.90;;;;;;5126039;27;20047;-82
2021/12/05 16:02:07;;;;;;;16.85;9.93;;;4.70;99.90;;;;;;5125696;28;20027;-81
2021/12/05 16:04:33;;;;;;;16.38;9.45;;;4.70;99.90;;;;;;5081464;28;20046;-82
2021/12/05 16:07:01;;;;;;;18.92;10.25;;;4.70;99.90;;;;;;5123599;28;20047;-81
2021/12/05 16:09:27;;;;;;;15.90;10.07;;;4.70;99.90;;;;;;5119432;28;20382;-81
2021/12/05 16:12:13;;;;;;;16.83;10.45;;;4.70;99.90;;;;;;5105326;28;20092;-82
2021/12/05 16:14:42;;;;;;;18.98;11.95;;;4.60;99.90;;;;;;5099371;28;20055;-81
2021/12/05 16:17:26;;;;;;;21.63;12.55;;;4.70;99.90;;;;;;5113572;28;20512;-81
2021/12/05 16:20:06;;;;;;;18.20;11.38;;;4.70;99.90;;;;;;5121939;28;20043;-82
2021/12/05 16:22:32;;;;;;;18.63;11.52;;;4.70;99.90;;;;;;5122764;27;20108;-81
2021/12/05 16:24:57;;;;;;;22.20;14.38;;;4.70;99.90;;;;;;5126479;27;20080;-82
2021/12/05 16:27:23;;;;;;;26.67;15.38;;;4.70;99.90;;;;;;5108516;27;20051;-81
2021/12/05 16:29:49;;;;;;;17.80;12.48;;;4.70;99.90;;;;;;5110175;27;20050;-82
2021/12/05 16:32:15;;;;;;;22.88;13.95;;;4.70;99.90;;;;;;5107855;27;20050;-81
2021/12/05 16:34:46;;;;;;;20.63;12.45;;;4.70;99.90;;;;;;5127222;27;20035;-82
2021/12/05 16:37:12;;;;;;;19.15;12.20;;;4.70;99.90;;;;;;5109697;27;20070;-82
2021/12/05 16:39:40;;;;;;;24.08;14.88;;;4.70;99.90;;;;;;5109225;27;20318;-83
2021/12/05 16:42:19;;;;;;;25.00;15.25;;;4.60;99.90;;;;;;5107141;27;20047;-82
2021/12/05 16:44:52;;;;;;;23.50;15.95;;;4.60;99.90;;;;;;5109574;27;20134;-82
2021/12/05 16:47:21;;;;;;;21.63;14.90;;;4.60;99.90;;;;;;5109953;27;20067;-83
2021/12/05 16:49:49;;;;;;;22.73;14.02;;;4.60;99.90;;;;;;5129973;27;20042;-82
2021/12/05 16:52:20;;;;;;;21.75;13.85;;;4.60;99.90;;;;;;5128891;27;20039;-82
2021/12/05 16:54:58;;;;;;;25.52;15.98;;;4.50;99.90;;;;;;5107992;27;20152;-81
2021/12/05 16:57:34;;;;;;;22.30;13.10;;;4.60;99.90;;;;;;5129854;27;20050;-81
2021/12/05 17:00:12;;;;;;;21.00;14.48;;;4.50;99.90;;;;;;5129920;27;20039;-81
2021/12/05 17:02:51;;;;;;;25.73;14.50;;;4.50;99.90;;;;;;5129682;27;21606;-81
2021/12/05 17:05:21;;;;;;;24.67;16.48;;;4.50;99.90;;;;;;5130002;27;20046;-81
2021/12/05 17:08:11;;;;;;;24.40;16.35;;;4.50;99.90;;;;;;5130235;27;20385;-81
2021/12/05 17:10:42;;;;;;;24.98;15.18;;;4.50;99.90;;;;;;5113821;27;20758;-81
2021/12/05 17:13:21;;;;;;;28.80;17.08;;;4.50;99.90;;;;;;5146421;27;20039;-81
2021/12/05 17:16:01;;;;;;;29.83;18.25;;;4.50;99.90;;;;;;5129368;27;20039;-82
2021/12/05 17:18:38;;;;;;;26.40;16.80;;;4.40;99.90;;;;;;5128759;27;20046;-81
2021/12/05 17:21:12;;;;;;;26.00;16.65;;;4.40;99.90;;;;;;5112961;27;20501;-81
2021/12/05 17:23:48;;;;;;;26.63;16.60;;;4.40;99.90;;;;;;5129068;27;20513;-81
2021/12/05 17:26:16;;;;;;;23.35;15.75;;;4.30;99.90;;;;;;5129760;27;20035;-81
2021/12/05 17:28:47;;;;;;;23.67;15.70;;;4.30;99.90;;;;;;5128736;27;20039;-84
2021/12/05 17:31:16;;;;;;;22.52;14.27;;;4.20;99.90;;;;;;5113217;27;20043;-85
2021/12/05 17:33:52;;;;;;;23.45;14.38;;;4.10;99.90;;;;;;5111140;27;20082;-84
2021/12/05 17:36:38;;;;;;;22.93;15.20;;;4.00;99.90;;;;;;5112106;27;20036;-84
2021/12/05 17:39:14;;;;;;;21.73;15.02;;;4.00;99.90;;;;;;5129921;27;20055;-83
2021/12/05 17:41:44;;;;;;;25.13;15.35;;;4.00;99.90;;;;;;5112270;27;20045;-83
2021/12/05 17:44:10;;;;;;;23.35;15.82;;;3.90;99.90;;;;;;5111312;27;20049;-83
2021/12/05 17:46:37;;;;;;;22.58;14.68;;;4.00;99.90;;;;;;5129580;27;20042;-83
2021/12/05 17:49:07;;;;;;;26.75;15.25;;;4.00;99.90;;;;;;5146918;27;20462;-83
2021/12/05 17:51:41;;;;;;;25.55;16.63;;;4.00;99.90;;;;;;5130251;27;20083;-83
2021/12/05 17:54:13;;;;;;;23.83;15.23;;;4.00;99.90;;;;;;5112057;27;20458;-83
2021/12/05 17:56:43;;;;;;;22.90;14.93;;;3.90;99.90;;;;;;5128813;27;20043;-84
2021/12/05 17:59:13;;;;;;;17.85;12.10;;;3.90;99.90;;;;;;5111283;27;20439;-86
2021/12/05 18:04:29;;;;;;;16.50;11.18;;;3.90;99.90;;;;;;5128648;27;20402;-84
2021/12/05 18:06:55;;;;;;;21.02;13.27;;;3.80;99.90;;;;;;5111692;27;20187;-84
2021/12/05 18:09:21;;;;;;;21.80;14.30;;;3.80;99.90;;;;;;5112132;27;20389;-84
2021/12/05 18:11:48;;;;;;;24.33;13.25;;;3.80;99.90;;;;;;5127355;27;20118;-83
2021/12/05 18:14:13;;;;;;;20.33;13.43;;;3.80;99.90;;;;;;5127875;27;20035;-84
2021/12/05 18:16:39;;;;;;;22.92;13.90;;;3.90;99.90;;;;;;5111796;27;20088;-84
2021/12/05 18:19:14;;;;;;;18.05;12.40;;;3.80;99.90;;;;;;5110769;27;20039;-84
2021/12/05 18:21:42;;;;;;;20.77;13.25;;;3.80;99.90;;;;;;5109983;27;20387;-84
2021/12/05 18:24:12;;;;;;;21.05;12.57;;;3.80;99.90;;;;;;5092769;27;20031;-80
2021/12/05 18:26:38;;;;;;;19.50;12.75;;;3.80;99.90;;;;;;5127179;27;20037;-85
2021/12/05 18:29:08;;;;;;;21.38;14.02;;;3.80;99.90;;;;;;5094202;27;20095;-84
2021/12/05 18:31:35;;;;;;;19.77;12.82;;;3.80;99.90;;;;;;5145169;27;20031;-84
2021/12/05 18:34:20;;;;;;;16.50;10.93;;;3.80;99.90;;;;;;5111796;27;20054;-84